Alma, Arkansas
Current Conditions -  °F | °C
As of 1:53 PM on Monday 24 Nov 2014 (Local Time) from KFSM Reporting Station
Clear Clear  
Wind Chill: 58°   Ceiling: Unl
Heat Index: 58°   Visibility: 10mi
Dew Point: 25°   Wind: 17mph
Humidity: 28%   Direction: 270°W
Pressure: 29.91"   Gusts: 26mph
Location:  35.48°N, 94.22°W
Report Text: KFSM 241953Z 27015G23KT 10SM CLR 14/M04 A2991 RMK AO2 PK WND 26027/1941 SLP126 T01441039
Loading
Personal Weather Stations






























Interactive Weather Map New forecast layout! Learn more

10-Day Weather Forecast

Advertisements
Track Severe Weather on mobile